Detall de PIREP

Printer-friendly versionPDF version

[2009/08/09 20:30:00]
Flight IATA:CT2108
Pilot Number:041
Company ICAO:CAT
Aircraft Type:AT72/F
PAX:48
Departing Airport: LEVC
Destination Airport: LEMG
Alternate Airport:LEZL
Online: VATSIM
Route:ASTRO1G B28 POBOS B28 XEBAR B28 YES B28 BAZAS B28 VIBAS B28 MGA1A
Flight Level:FL190
No Slew and time accel
No pause
Crash detect
Detect pilot in Cockpit between each 30 and 45 minutes
20:30 Zero fuel Weight: 39804 Lbs, Fuel Weight: 5590 Lbs
20:30 VATSIM:LEVC 092000Z 35012KT 290V010 9999 FEW018 SCT030 25/15 Q1016 NOSIG
20:30 VATSIM:LEMG 092000Z 17003KT 130V200 CAVOK 25/14 Q1011 NOSIG
20:30 VOICE CATALONIAN
20:31 Parking Brakes off
20:41 Take-off
20:41 Take off Weight: 45297 Lbs
20:41 Wind: 066º @ 002 Knots Heading: 115º
20:41 POS N39º 29´ 11´´ W000º 28´ 26´´
20:41 Gear Up: 153 Knots
20:41 Flaps:1 at 153 Knots
20:42 Flaps:0 at 184 Knots
20:56 Wind:245º@005 Knots Headin
g: 233º Ground Speed: 266 Knots Altitude 9081 ft
21:06 TOC
21:06 Fuel Weight: 4674 Lb
21:11 Wind:226º@013 Knots Heading: 227º Ground Speed: 274 Knots Altitude 19068 ft
21:25 TOD
21:25 Fuel Weight: 4054 Lb
21:26 Wind:226º@009 Knots Heading: 225º Ground Speed: 305 Knots Altitude 18494 ft
21:41 Wind:045º@006 Knots Heading: 131º Ground Speed: 259 Knots Altitude 5498 ft
21:53 Flaps:1 at 189 Knots
21:55 Gear Down: 139 Knots
21:55 Flaps:2 at 134 Knots
21:56 Wind:251º@002 Knots Heading: 132º Ground Speed: 124 Knots Altitude 935 ft
21:57 TouchDown:Rate -111 ft/min Speed: 103 Knots
21:57 Flaps:0 at 93 Knots
21:57 VATSIM:LEMG 092130Z 08009KT CAVOK 24/18 Q1013 NOSIG
21:57 Land
21:57 Wind:251º@002 Knots
21:57 Heading: 131º
21:57 Flight Duration: 01:16
21:57 Landing Weight: 43238 Lbs
21:57 POS N36º 40´ 28´´ W004º 29´ 55´´
22:01 Parking brakes on
22:01 Block to Block
Duration: 01:30
22:01 Final Fuel: 3410 Lbls
22:01 Spent Fuel: 2180 Lbls
22:01 Flight Length: 318 NM
22:01 TOD Land Length: 130 NM

Exportar CSV

Powered by Drupal - Modified by Danger4k